DECMH EDDG-EDDG
Flight info
| Callsign | DECMH |
|---|---|
| Flight time | 0h 13m |
| Altitude | |
| Route | |
| Aircraft |
Departure
| Time | 2026-05-07 17:10 |
|---|---|
| Airport | Münster Osnabrück Airport (EDDG) |
Arrival
| Time | 2026-05-07 17:24 |
|---|---|
| Airport | Münster Osnabrück Airport (EDDG) |
| Time | Latitude | Longitude | Altitude | Speed | Heading |
|---|---|---|---|---|---|
| 2026-05-07 17:05 | 52.13250 | 7.68322 | 161 ft | 8 kts | 340° |
| 2026-05-07 17:06 | 52.13303 | 7.68294 | 162 ft | 8 kts | 342° |
| 2026-05-07 17:06 | 52.13329 | 7.68279 | 162 ft | 0 kts | 338° |
| 2026-05-07 17:09 | 52.13330 | 7.68279 | 162 ft | 1 kts | 338° |
| 2026-05-07 17:09 | 52.13389 | 7.68228 | 162 ft | 12 kts | 309° |
| 2026-05-07 17:09 | 52.13395 | 7.68151 | 161 ft | 0 kts | 252° |
| 2026-05-07 17:09 | 52.13392 | 7.68138 | 161 ft | 8 kts | 252° |
| 2026-05-07 17:10 | 52.13307 | 7.67737 | 160 ft | 70 kts | 250° |
| 2026-05-07 17:10 | 52.13107 | 7.66806 | 334 ft | 95 kts | 252° |
| 2026-05-07 17:10 | 52.12879 | 7.65740 | 579 ft | 102 kts | 252° |
| 2026-05-07 17:10 | 52.12646 | 7.64621 | 850 ft | 106 kts | 253° |
| 2026-05-07 17:11 | 52.12166 | 7.63750 | 942 ft | 107 kts | 201° |
| 2026-05-07 17:11 | 52.11436 | 7.63690 | 1012 ft | 105 kts | 166° |
| 2026-05-07 17:11 | 52.10719 | 7.63915 | 1092 ft | 107 kts | 162° |
| 2026-05-07 17:11 | 52.09997 | 7.64244 | 1131 ft | 109 kts | 150° |
| 2026-05-07 17:12 | 52.09527 | 7.65111 | 1164 ft | 100 kts | 97° |
| 2026-05-07 17:12 | 52.09601 | 7.66127 | 1334 ft | 87 kts | 70° |
| 2026-05-07 17:12 | 52.09744 | 7.67067 | 1445 ft | 87 kts | 72° |
| 2026-05-07 17:12 | 52.09867 | 7.68040 | 1457 ft | 89 kts | 72° |
| 2026-05-07 17:13 | 52.09999 | 7.69019 | 1457 ft | 89 kts | 73° |
| 2026-05-07 17:13 | 52.10138 | 7.70035 | 1367 ft | 94 kts | 71° |
| 2026-05-07 17:13 | 52.10314 | 7.71049 | 1349 ft | 93 kts | 70° |
| 2026-05-07 17:13 | 52.10511 | 7.72054 | 1288 ft | 93 kts | 69° |
| 2026-05-07 17:14 | 52.10681 | 7.73070 | 1195 ft | 94 kts | 72° |
| 2026-05-07 17:14 | 52.10873 | 7.74084 | 1041 ft | 91 kts | 69° |
| 2026-05-07 17:14 | 52.11042 | 7.75037 | 900 ft | 87 kts | 75° |
| 2026-05-07 17:14 | 52.11198 | 7.75974 | 829 ft | 81 kts | 69° |
| 2026-05-07 17:15 | 52.11544 | 7.76643 | 715 ft | 83 kts | 18° |
| 2026-05-07 17:15 | 52.12117 | 7.76428 | 615 ft | 85 kts | 343° |
| 2026-05-07 17:15 | 52.12651 | 7.76045 | 649 ft | 81 kts | 339° |
| 2026-05-07 17:15 | 52.13156 | 7.75602 | 657 ft | 85 kts | 334° |
| 2026-05-07 17:16 | 52.13667 | 7.75093 | 664 ft | 87 kts | 333° |
| 2026-05-07 17:16 | 52.14118 | 7.74462 | 710 ft | 87 kts | 320° |
| 2026-05-07 17:16 | 52.14416 | 7.73599 | 680 ft | 99 kts | 273° |
| 2026-05-07 17:16 | 52.14306 | 7.72531 | 629 ft | 89 kts | 261° |
| 2026-05-07 17:17 | 52.14115 | 7.71528 | 458 ft | 93 kts | 253° |
| 2026-05-07 17:17 | 52.13896 | 7.70542 | 333 ft | 87 kts | 252° |
| 2026-05-07 17:17 | 52.13702 | 7.69617 | 206 ft | 84 kts | 253° |
| 2026-05-07 17:17 | 52.13534 | 7.68819 | 160 ft | 64 kts | 253° |
| 2026-05-07 17:18 | 52.13409 | 7.68214 | 162 ft | 52 kts | 250° |
| 2026-05-07 17:18 | 52.13243 | 7.67444 | 226 ft | 91 kts | 252° |
| 2026-05-07 17:18 | 52.13028 | 7.66410 | 493 ft | 100 kts | 252° |
| 2026-05-07 17:18 | 52.12792 | 7.65287 | 716 ft | 110 kts | 253° |
| 2026-05-07 17:19 | 52.12583 | 7.64054 | 960 ft | 116 kts | 272° |
| 2026-05-07 17:19 | 52.12927 | 7.63015 | 1193 ft | 104 kts | 335° |
| 2026-05-07 17:19 | 52.13596 | 7.62586 | 1264 ft | 103 kts | 344° |
| 2026-05-07 17:19 | 52.14269 | 7.62155 | 1264 ft | 105 kts | 342° |
| 2026-05-07 17:20 | 52.14952 | 7.61838 | 1130 ft | 102 kts | 12° |
| 2026-05-07 17:20 | 52.15392 | 7.62649 | 1070 ft | 98 kts | 75° |
| 2026-05-07 17:20 | 52.15556 | 7.63704 | 1083 ft | 95 kts | 70° |
| 2026-05-07 17:20 | 52.15740 | 7.64737 | 1050 ft | 96 kts | 71° |
| 2026-05-07 17:21 | 52.15902 | 7.65811 | 991 ft | 98 kts | 72° |
| 2026-05-07 17:21 | 52.16097 | 7.66863 | 1008 ft | 96 kts | 68° |
| 2026-05-07 17:21 | 52.16339 | 7.67877 | 983 ft | 98 kts | 65° |
| 2026-05-07 17:21 | 52.16579 | 7.68912 | 972 ft | 97 kts | 72° |
| 2026-05-07 17:22 | 52.16721 | 7.69982 | 910 ft | 98 kts | 76° |
| 2026-05-07 17:22 | 52.16631 | 7.71024 | 956 ft | 100 kts | 118° |
| 2026-05-07 17:22 | 52.15983 | 7.71523 | 960 ft | 108 kts | 165° |
| 2026-05-07 17:22 | 52.15258 | 7.71707 | 793 ft | 103 kts | 168° |
| 2026-05-07 17:23 | 52.14561 | 7.71807 | 590 ft | 100 kts | 176° |
| 2026-05-07 17:23 | 52.14013 | 7.71274 | 499 ft | 96 kts | 254° |
| 2026-05-07 17:23 | 52.13845 | 7.70286 | 316 ft | 87 kts | 252° |
| 2026-05-07 17:23 | 52.13654 | 7.69394 | 167 ft | 79 kts | 253° |
| 2026-05-07 17:24 | 52.13504 | 7.68672 | 160 ft | 58 kts | 252° |
| 2026-05-07 17:24 | 52.13385 | 7.68105 | 161 ft | 49 kts | 251° |
| 2026-05-07 17:24 | 52.13225 | 7.67346 | 203 ft | 92 kts | 251° |
| 2026-05-07 17:24 | 52.13004 | 7.66293 | 436 ft | 103 kts | 251° |
| 2026-05-07 17:25 | 52.12754 | 7.65179 | 782 ft | 104 kts | 250° |
| 2026-05-07 17:25 | 52.12595 | 7.64025 | 1014 ft | 105 kts | 288° |
| 2026-05-07 17:25 | 52.13123 | 7.63340 | 1191 ft | 94 kts | 341° |
| 2026-05-07 17:25 | 52.13748 | 7.62904 | 1248 ft | 101 kts | 344° |
| 2026-05-07 17:26 | 52.14425 | 7.62652 | 1235 ft | 101 kts | 7° |
| 2026-05-07 17:26 | 52.14947 | 7.63323 | 1243 ft | 101 kts | 65° |
| 2026-05-07 17:26 | 52.15101 | 7.64424 | 1300 ft | 99 kts | 73° |
| 2026-05-07 17:26 | 52.15276 | 7.65488 | 1269 ft | 96 kts | 71° |
| 2026-05-07 17:27 | 52.15448 | 7.66524 | 1249 ft | 93 kts | 73° |
| 2026-05-07 17:27 | 52.15656 | 7.67512 | 1209 ft | 93 kts | 64° |
| 2026-05-07 17:27 | 52.15915 | 7.68462 | 1211 ft | 90 kts | 62° |
| 2026-05-07 17:27 | 52.16181 | 7.69350 | 1175 ft | 88 kts | 60° |
| 2026-05-07 17:28 | 52.16212 | 7.70296 | 1078 ft | 99 kts | 121° |
| 2026-05-07 17:28 | 52.15574 | 7.70769 | 1000 ft | 98 kts | 158° |
| 2026-05-07 17:28 | 52.14901 | 7.71105 | 720 ft | 104 kts | 156° |
| 2026-05-07 17:28 | 52.14208 | 7.71433 | 558 ft | 103 kts | 171° |
| 2026-05-07 17:29 | 52.13799 | 7.70687 | 432 ft | 102 kts | 268° |
| 2026-05-07 17:29 | 52.13710 | 7.69625 | 208 ft | 94 kts | 252° |
| 2026-05-07 17:29 | 52.13520 | 7.68771 | 162 ft | 67 kts | 257° |
| 2026-05-07 17:29 | 52.13394 | 7.68140 | 161 ft | 56 kts | 250° |
| 2026-05-07 17:30 | 52.13216 | 7.67289 | 218 ft | 99 kts | 251° |
| 2026-05-07 17:30 | 52.12973 | 7.66183 | 492 ft | 103 kts | 251° |
| 2026-05-07 17:30 | 52.12700 | 7.65071 | 806 ft | 108 kts | 247° |
| 2026-05-07 17:30 | 52.12449 | 7.63838 | 924 ft | 120 kts | 271° |
| 2026-05-07 17:31 | 52.12861 | 7.62731 | 1058 ft | 119 kts | 337° |
| 2026-05-07 17:31 | 52.13603 | 7.62284 | 1289 ft | 113 kts | 346° |
| 2026-05-07 17:31 | 52.14361 | 7.61837 | 1255 ft | 119 kts | 342° |
| 2026-05-07 17:31 | 52.15163 | 7.61738 | 1075 ft | 122 kts | 27° |
| 2026-05-07 17:32 | 52.15620 | 7.62808 | 1113 ft | 115 kts | 75° |
| 2026-05-07 17:32 | 52.15784 | 7.64079 | 1140 ft | 116 kts | 75° |
| 2026-05-07 17:32 | 52.15907 | 7.64922 | 1128 ft | 115 kts | 74° |
| 2026-05-07 17:32 | 52.16082 | 7.66202 | 1124 ft | 114 kts | 76° |
| 2026-05-07 17:33 | 52.16263 | 7.67407 | 1263 ft | 108 kts | 69° |
| 2026-05-07 17:33 | 52.16594 | 7.68952 | 1297 ft | 110 kts | 69° |
| 2026-05-07 17:33 | 52.16849 | 7.70132 | 1341 ft | 110 kts | 70° |
| 2026-05-07 17:33 | 52.17063 | 7.71255 | 1173 ft | 98 kts | 80° |
| 2026-05-07 17:34 | 52.16933 | 7.71940 | 989 ft | 98 kts | 129° |
| 2026-05-07 17:34 | 52.16279 | 7.72258 | 869 ft | 104 kts | 166° |
| 2026-05-07 17:34 | 52.15558 | 7.72444 | 814 ft | 109 kts | 160° |
| 2026-05-07 17:34 | 52.14836 | 7.72736 | 802 ft | 106 kts | 165° |
| 2026-05-07 17:35 | 52.14181 | 7.72344 | 717 ft | 104 kts | 240° |
| 2026-05-07 17:35 | 52.14047 | 7.71232 | 587 ft | 90 kts | 259° |
| 2026-05-07 17:35 | 52.13833 | 7.70247 | 303 ft | 88 kts | 252° |
| 2026-05-07 17:35 | 52.13646 | 7.69343 | 167 ft | 77 kts | 253° |
| 2026-05-07 17:36 | 52.13507 | 7.68681 | 160 ft | 45 kts | 251° |
| 2026-05-07 17:36 | 52.13440 | 7.68369 | 162 ft | 10 kts | 251° |
| 2026-05-07 17:36 | 52.13406 | 7.68274 | 162 ft | 10 kts | 217° |
| 2026-05-07 17:36 | 52.13342 | 7.68272 | 162 ft | 9 kts | 161° |
| 2026-05-07 17:37 | 52.13278 | 7.68307 | 161 ft | 10 kts | 160° |
| 2026-05-07 17:37 | 52.13214 | 7.68343 | 160 ft | 6 kts | 163° |
| 2026-05-07 17:37 | 52.13189 | 7.68293 | 159 ft | 6 kts | 253° |
| 2026-05-07 17:37 | 52.13160 | 7.68270 | 159 ft | 5 kts | 228° |
| 2026-05-07 17:38 | 52.13158 | 7.68230 | 159 ft | 0 kts | 272° |